sensor_id;sensor_type;location;lat;lon;timestamp;pressure;altitude;pressure_sealevel;temperature;humidity
64352;BME280;50680;52.626;-8.668;2024-03-07T00:00:22;101457.34;;;11.29;100.00
64352;BME280;50680;52.626;-8.668;2024-03-07T00:02:50;101467.41;;;11.21;100.00
64352;BME280;50680;52.626;-8.668;2024-03-07T00:05:20;101456.50;;;11.29;100.00
64352;BME280;50680;52.626;-8.668;2024-03-07T00:07:48;101448.69;;;11.27;100.00
64352;BME280;50680;52.626;-8.668;2024-03-07T00:10:16;101457.28;;;11.31;100.00
64352;BME280;50680;52.626;-8.668;2024-03-07T00:12:44;101457.28;;;11.31;100.00
64352;BME280;50680;52.626;-8.668;2024-03-07T00:15:12;101443.31;;;11.31;100.00
64352;BME280;50680;52.626;-8.668;2024-03-07T00:17:40;101446.00;;;11.29;100.00
64352;BME280;50680;52.626;-8.668;2024-03-07T00:20:08;101457.34;;;11.29;100.00
64352;BME280;50680;52.626;-8.668;2024-03-07T00:22:36;101453.59;;;11.35;100.00
64352;BME280;50680;52.626;-8.668;2024-03-07T00:25:04;101451.94;;;11.33;100.00
64352;BME280;50680;52.626;-8.668;2024-03-07T00:27:32;101450.84;;;11.37;100.00
64352;BME280;50680;52.626;-8.668;2024-03-07T00:30:00;101448.56;;;11.31;100.00
64352;BME280;50680;52.626;-8.668;2024-03-07T00:32:27;101450.97;;;11.35;100.00
64352;BME280;50680;52.626;-8.668;2024-03-07T00:34:57;101448.22;;;11.37;100.00
64352;BME280;50680;52.626;-8.668;2024-03-07T00:37:24;101449.19;;;11.36;100.00
64352;BME280;50680;52.626;-8.668;2024-03-07T00:39:51;101457.97;;;11.35;100.00
64352;BME280;50680;52.626;-8.668;2024-03-07T00:42:18;101458.56;;;11.40;100.00
64352;BME280;50680;52.626;-8.668;2024-03-07T00:44:45;101460.84;;;11.47;100.00
64352;BME280;50680;52.626;-8.668;2024-03-07T00:47:13;101461.81;;;11.45;100.00
64352;BME280;50680;52.626;-8.668;2024-03-07T00:49:40;101457.34;;;11.47;100.00
64352;BME280;50680;52.626;-8.668;2024-03-07T00:52:07;101460.69;;;11.51;100.00
64352;BME280;50680;52.626;-8.668;2024-03-07T00:54:35;101461.66;;;11.48;100.00
64352;BME280;50680;52.626;-8.668;2024-03-07T00:57:02;101453.22;;;11.59;100.00
64352;BME280;50680;52.626;-8.668;2024-03-07T00:59:29;101464.91;;;11.53;100.00
64352;BME280;50680;52.626;-8.668;2024-03-07T01:01:56;101467.66;;;11.67;100.00
64352;BME280;50680;52.626;-8.668;2024-03-07T01:04:23;101470.63;;;11.61;100.00
64352;BME280;50680;52.626;-8.668;2024-03-07T01:06:51;101466.38;;;11.59;100.00
64352;BME280;50680;52.626;-8.668;2024-03-07T01:09:18;101469.59;;;11.64;100.00
64352;BME280;50680;52.626;-8.668;2024-03-07T01:11:45;101454.88;;;11.61;100.00
64352;BME280;50680;52.626;-8.668;2024-03-07T01:14:12;101469.69;;;11.62;100.00
64352;BME280;50680;52.626;-8.668;2024-03-07T01:16:40;101471.88;;;11.54;100.00
64352;BME280;50680;52.626;-8.668;2024-03-07T01:19:07;101466.44;;;11.57;100.00
64352;BME280;50680;52.626;-8.668;2024-03-07T01:21:35;101468.44;;;11.52;100.00
64352;BME280;50680;52.626;-8.668;2024-03-07T01:24:05;101464.16;;;11.51;100.00
64352;BME280;50680;52.626;-8.668;2024-03-07T01:26:32;101466.09;;;11.47;100.00
64352;BME280;50680;52.626;-8.668;2024-03-07T01:29:02;101468.94;;;11.43;100.00
64352;BME280;50680;52.626;-8.668;2024-03-07T01:31:29;101463.47;;;11.47;100.00
64352;BME280;50680;52.626;-8.668;2024-03-07T01:33:56;101475.19;;;11.40;100.00
64352;BME280;50680;52.626;-8.668;2024-03-07T01:36:23;101463.97;;;11.37;100.00
64352;BME280;50680;52.626;-8.668;2024-03-07T01:38:50;101477.50;;;11.29;100.00
64352;BME280;50680;52.626;-8.668;2024-03-07T01:41:18;101464.59;;;11.42;100.00
64352;BME280;50680;52.626;-8.668;2024-03-07T01:43:45;101468.47;;;11.35;100.00
64352;BME280;50680;52.626;-8.668;2024-03-07T01:46:13;101473.78;;;11.33;100.00
64352;BME280;50680;52.626;-8.668;2024-03-07T01:48:40;101458.59;;;11.22;100.00
64352;BME280;50680;52.626;-8.668;2024-03-07T01:51:08;101463.69;;;11.25;100.00
64352;BME280;50680;52.626;-8.668;2024-03-07T01:53:35;101454.03;;;11.26;100.00
64352;BME280;50680;52.626;-8.668;2024-03-07T01:56:03;101466.53;;;11.21;100.00
64352;BME280;50680;52.626;-8.668;2024-03-07T01:58:31;101459.75;;;11.17;100.00
64352;BME280;50680;52.626;-8.668;2024-03-07T02:00:59;101470.47;;;11.12;100.00
64352;BME280;50680;52.626;-8.668;2024-03-07T02:03:27;101477.44;;;11.13;100.00
64352;BME280;50680;52.626;-8.668;2024-03-07T02:05:55;101475.72;;;11.12;100.00
64352;BME280;50680;52.626;-8.668;2024-03-07T02:08:22;101478.19;;;11.15;100.00
64352;BME280;50680;52.626;-8.668;2024-03-07T02:10:49;101468.59;;;11.14;100.00
64352;BME280;50680;52.626;-8.668;2024-03-07T02:13:16;101465.91;;;11.16;100.00
64352;BME280;50680;52.626;-8.668;2024-03-07T02:15:44;101470.41;;;11.14;100.00
64352;BME280;50680;52.626;-8.668;2024-03-07T02:18:11;101462.59;;;11.12;100.00
64352;BME280;50680;52.626;-8.668;2024-03-07T02:20:43;101459.06;;;11.13;100.00
64352;BME280;50680;52.626;-8.668;2024-03-07T02:23:11;101456.56;;;11.10;100.00
64352;BME280;50680;52.626;-8.668;2024-03-07T02:25:38;101457.19;;;10.98;100.00
64352;BME280;50680;52.626;-8.668;2024-03-07T02:28:05;101463.13;;;11.01;100.00
64352;BME280;50680;52.626;-8.668;2024-03-07T02:30:32;101461.97;;;11.07;100.00
64352;BME280;50680;52.626;-8.668;2024-03-07T02:32:59;101457.81;;;11.03;100.00
64352;BME280;50680;52.626;-8.668;2024-03-07T02:35:34;101461.97;;;11.07;100.00
64352;BME280;50680;52.626;-8.668;2024-03-07T02:38:03;101456.97;;;11.02;100.00
64352;BME280;50680;52.626;-8.668;2024-03-07T02:40:30;101458.56;;;11.05;100.00
64352;BME280;50680;52.626;-8.668;2024-03-07T02:42:57;101463.81;;;11.05;100.00
64352;BME280;50680;52.626;-8.668;2024-03-07T02:45:24;101472.63;;;11.04;100.00
64352;BME280;50680;52.626;-8.668;2024-03-07T02:47:52;101467.22;;;11.07;100.00
64352;BME280;50680;52.626;-8.668;2024-03-07T02:50:22;101466.22;;;11.09;100.00
64352;BME280;50680;52.626;-8.668;2024-03-07T02:52:49;101455.75;;;11.09;100.00
64352;BME280;50680;52.626;-8.668;2024-03-07T02:55:17;101464.59;;;11.24;100.00
64352;BME280;50680;52.626;-8.668;2024-03-07T02:57:45;101460.78;;;11.32;100.00
64352;BME280;50680;52.626;-8.668;2024-03-07T03:00:13;101458.28;;;11.28;100.00
64352;BME280;50680;52.626;-8.668;2024-03-07T03:02:54;101459.06;;;11.31;100.00
64352;BME280;50680;52.626;-8.668;2024-03-07T03:05:21;101457.34;;;11.29;100.00
64352;BME280;50680;52.626;-8.668;2024-03-07T03:07:49;101450.41;;;11.28;100.00
64352;BME280;50680;52.626;-8.668;2024-03-07T03:10:26;101460.59;;;11.35;100.00
64352;BME280;50680;52.626;-8.668;2024-03-07T03:12:57;101466.47;;;11.22;100.00
64352;BME280;50680;52.626;-8.668;2024-03-07T03:15:26;101464.16;;;11.16;100.00
64352;BME280;50680;52.626;-8.668;2024-03-07T03:17:53;101461.34;;;11.19;100.00
64352;BME280;50680;52.626;-8.668;2024-03-07T03:20:20;101456.97;;;11.20;100.00
64352;BME280;50680;52.626;-8.668;2024-03-07T03:23:01;101450.09;;;11.17;100.00
64352;BME280;50680;52.626;-8.668;2024-03-07T03:25:46;101453.34;;;11.05;100.00
64352;BME280;50680;52.626;-8.668;2024-03-07T03:28:16;101449.31;;;10.98;100.00
64352;BME280;50680;52.626;-8.668;2024-03-07T03:30:43;101447.59;;;10.97;100.00
64352;BME280;50680;52.626;-8.668;2024-03-07T03:33:11;101454.22;;;10.86;100.00
64352;BME280;50680;52.626;-8.668;2024-03-07T03:35:39;101439.56;;;10.82;100.00
64352;BME280;50680;52.626;-8.668;2024-03-07T03:38:07;101447.91;;;10.73;100.00
64352;BME280;50680;52.626;-8.668;2024-03-07T03:40:35;101434.38;;;10.63;100.00
64352;BME280;50680;52.626;-8.668;2024-03-07T03:43:02;101440.13;;;10.52;100.00
64352;BME280;50680;52.626;-8.668;2024-03-07T03:45:29;101430.63;;;10.50;100.00
64352;BME280;50680;52.626;-8.668;2024-03-07T03:47:56;101435.28;;;10.43;100.00
64352;BME280;50680;52.626;-8.668;2024-03-07T03:50:23;101436.69;;;10.33;100.00
64352;BME280;50680;52.626;-8.668;2024-03-07T03:52:51;101436.91;;;10.27;100.00
64352;BME280;50680;52.626;-8.668;2024-03-07T03:55:18;101433.53;;;10.25;100.00
64352;BME280;50680;52.626;-8.668;2024-03-07T03:57:45;101433.72;;;10.20;100.00
64352;BME280;50680;52.626;-8.668;2024-03-07T04:00:16;101429.56;;;10.16;100.00
64352;BME280;50680;52.626;-8.668;2024-03-07T04:02:45;101452.28;;;10.15;100.00
64352;BME280;50680;52.626;-8.668;2024-03-07T04:05:18;101441.97;;;10.12;100.00
64352;BME280;50680;52.626;-8.668;2024-03-07T04:07:46;101451.94;;;10.04;100.00
64352;BME280;50680;52.626;-8.668;2024-03-07T04:10:15;101447.47;;;10.06;100.00
64352;BME280;50680;52.626;-8.668;2024-03-07T04:12:42;101457.66;;;9.93;100.00
64352;BME280;50680;52.626;-8.668;2024-03-07T04:15:11;101454.34;;;9.90;100.00
64352;BME280;50680;52.626;-8.668;2024-03-07T04:17:38;101450.00;;;9.89;100.00
64352;BME280;50680;52.626;-8.668;2024-03-07T04:20:06;101448.28;;;9.88;100.00
64352;BME280;50680;52.626;-8.668;2024-03-07T04:22:34;101456.56;;;9.78;100.00
64352;BME280;50680;52.626;-8.668;2024-03-07T04:25:02;101463.84;;;9.72;100.00
64352;BME280;50680;52.626;-8.668;2024-03-07T04:27:29;101464.78;;;9.71;100.00
64352;BME280;50680;52.626;-8.668;2024-03-07T04:29:57;101468.09;;;9.74;100.00
64352;BME280;50680;52.626;-8.668;2024-03-07T04:32:24;101467.63;;;9.85;100.00
64352;BME280;50680;52.626;-8.668;2024-03-07T04:34:51;101464.59;;;9.94;100.00
64352;BME280;50680;52.626;-8.668;2024-03-07T04:37:18;101470.34;;;10.03;100.00
64352;BME280;50680;52.626;-8.668;2024-03-07T04:39:45;101463.06;;;10.09;100.00
64352;BME280;50680;52.626;-8.668;2024-03-07T04:42:12;101464.41;;;10.18;100.00
64352;BME280;50680;52.626;-8.668;2024-03-07T04:44:40;101464.03;;;10.26;100.00
64352;BME280;50680;52.626;-8.668;2024-03-07T04:47:07;101470.16;;;10.26;100.00
64352;BME280;50680;52.626;-8.668;2024-03-07T04:49:34;101458.78;;;10.26;100.00
64352;BME280;50680;52.626;-8.668;2024-03-07T04:52:03;101471.91;;;10.26;100.00
64352;BME280;50680;52.626;-8.668;2024-03-07T04:54:30;101477.44;;;10.20;100.00
64352;BME280;50680;52.626;-8.668;2024-03-07T04:56:58;101476.94;;;10.11;100.00
64352;BME280;50680;52.626;-8.668;2024-03-07T04:59:26;101474.88;;;10.18;100.00
64352;BME280;50680;52.626;-8.668;2024-03-07T05:01:53;101479.13;;;10.21;100.00
64352;BME280;50680;52.626;-8.668;2024-03-07T05:04:20;101483.19;;;10.28;100.00
64352;BME280;50680;52.626;-8.668;2024-03-07T05:06:47;101482.31;;;10.27;100.00
64352;BME280;50680;52.626;-8.668;2024-03-07T05:09:17;101482.25;;;10.29;100.00
64352;BME280;50680;52.626;-8.668;2024-03-07T05:11:53;101477.53;;;10.37;100.00
64352;BME280;50680;52.626;-8.668;2024-03-07T05:14:21;101495.59;;;10.43;100.00
64352;BME280;50680;52.626;-8.668;2024-03-07T05:16:52;101484.69;;;10.52;100.00
64352;BME280;50680;52.626;-8.668;2024-03-07T05:19:32;101486.09;;;10.60;100.00
64352;BME280;50680;52.626;-8.668;2024-03-07T05:22:00;101476.38;;;10.62;100.00
64352;BME280;50680;52.626;-8.668;2024-03-07T05:24:28;101480.88;;;10.60;100.00
64352;BME280;50680;52.626;-8.668;2024-03-07T05:26:55;101478.38;;;10.57;100.00
64352;BME280;50680;52.626;-8.668;2024-03-07T05:29:22;101482.84;;;10.54;100.00
64352;BME280;50680;52.626;-8.668;2024-03-07T05:31:49;101474.34;;;10.49;100.00
64352;BME280;50680;52.626;-8.668;2024-03-07T05:34:16;101465.97;;;10.41;100.00
64352;BME280;50680;52.626;-8.668;2024-03-07T05:36:46;101491.78;;;10.50;100.00
64352;BME280;50680;52.626;-8.668;2024-03-07T05:39:15;101489.00;;;10.53;100.00
64352;BME280;50680;52.626;-8.668;2024-03-07T05:41:43;101488.31;;;10.50;100.00
64352;BME280;50680;52.626;-8.668;2024-03-07T05:44:15;101486.47;;;10.52;100.00
64352;BME280;50680;52.626;-8.668;2024-03-07T05:46:42;101495.47;;;10.46;100.00
64352;BME280;50680;52.626;-8.668;2024-03-07T05:49:13;101491.72;;;10.52;100.00
64352;BME280;50680;52.626;-8.668;2024-03-07T05:51:41;101493.47;;;10.51;100.00
64352;BME280;50680;52.626;-8.668;2024-03-07T05:54:12;101504.03;;;10.50;100.00
64352;BME280;50680;52.626;-8.668;2024-03-07T05:56:40;101494.25;;;10.53;100.00
64352;BME280;50680;52.626;-8.668;2024-03-07T05:59:08;101498.66;;;10.53;100.00
64352;BME280;50680;52.626;-8.668;2024-03-07T06:01:39;101505.75;;;10.51;100.00
64352;BME280;50680;52.626;-8.668;2024-03-07T06:04:06;101500.56;;;10.49;100.00
64352;BME280;50680;52.626;-8.668;2024-03-07T06:06:34;101504.91;;;10.50;100.00
64352;BME280;50680;52.626;-8.668;2024-03-07T06:09:05;101505.03;;;10.47;100.00
64352;BME280;50680;52.626;-8.668;2024-03-07T06:11:36;101505.38;;;10.40;100.00
64352;BME280;50680;52.626;-8.668;2024-03-07T06:14:06;101508.72;;;10.43;100.00
64352;BME280;50680;52.626;-8.668;2024-03-07T06:16:37;101508.06;;;10.38;100.00
64352;BME280;50680;52.626;-8.668;2024-03-07T06:19:05;101512.25;;;10.42;100.00
64352;BME280;50680;52.626;-8.668;2024-03-07T06:21:39;101503.47;;;10.43;100.00
64352;BME280;50680;52.626;-8.668;2024-03-07T06:24:06;101504.47;;;10.41;100.00
64352;BME280;50680;52.626;-8.668;2024-03-07T06:26:36;101502.75;;;10.40;100.00
64352;BME280;50680;52.626;-8.668;2024-03-07T06:29:04;101502.81;;;10.38;100.00
64352;BME280;50680;52.626;-8.668;2024-03-07T06:31:34;101502.03;;;10.36;100.00
64352;BME280;50680;52.626;-8.668;2024-03-07T06:34:01;101505.38;;;10.40;100.00
64352;BME280;50680;52.626;-8.668;2024-03-07T06:36:28;101508.88;;;10.40;100.00
64352;BME280;50680;52.626;-8.668;2024-03-07T06:38:55;101502.75;;;10.40;100.00
64352;BME280;50680;52.626;-8.668;2024-03-07T06:41:22;101507.16;;;10.39;100.00
64352;BME280;50680;52.626;-8.668;2024-03-07T06:43:49;101507.16;;;10.39;100.00
64352;BME280;50680;52.626;-8.668;2024-03-07T06:46:16;101502.81;;;10.38;100.00
64352;BME280;50680;52.626;-8.668;2024-03-07T06:48:43;101507.53;;;10.31;100.00
64352;BME280;50680;52.626;-8.668;2024-03-07T06:51:11;101503.97;;;10.32;100.00
64352;BME280;50680;52.626;-8.668;2024-03-07T06:53:38;101507.03;;;10.42;100.00
64352;BME280;50680;52.626;-8.668;2024-03-07T06:56:06;101510.69;;;10.38;100.00
64352;BME280;50680;52.626;-8.668;2024-03-07T06:58:33;101506.00;;;10.45;100.00
64352;BME280;50680;52.626;-8.668;2024-03-07T07:01:00;101509.56;;;10.44;100.00
64352;BME280;50680;52.626;-8.668;2024-03-07T07:03:28;101522.88;;;10.39;100.00
64352;BME280;50680;52.626;-8.668;2024-03-07T07:05:54;101523.19;;;10.33;100.00
64352;BME280;50680;52.626;-8.668;2024-03-07T07:08:21;101523.41;;;10.27;100.00
64352;BME280;50680;52.626;-8.668;2024-03-07T07:10:49;101527.94;;;10.23;100.00
64352;BME280;50680;52.626;-8.668;2024-03-07T07:13:16;101535.63;;;10.28;100.00
64352;BME280;50680;52.626;-8.668;2024-03-07T07:15:43;101525.53;;;10.19;100.00
64352;BME280;50680;52.626;-8.668;2024-03-07T07:18:12;101543.47;;;10.28;100.00
64352;BME280;50680;52.626;-8.668;2024-03-07T07:20:40;101535.81;;;10.23;100.00
64352;BME280;50680;52.626;-8.668;2024-03-07T07:23:08;101536.44;;;10.28;100.00
64352;BME280;50680;52.626;-8.668;2024-03-07T07:25:35;101535.63;;;10.28;100.00
64352;BME280;50680;52.626;-8.668;2024-03-07T07:28:02;101539.97;;;10.27;100.00
64352;BME280;50680;52.626;-8.668;2024-03-07T07:30:31;101544.63;;;10.21;100.00
64352;BME280;50680;52.626;-8.668;2024-03-07T07:32:58;101537.28;;;10.29;100.00
64352;BME280;50680;52.626;-8.668;2024-03-07T07:35:25;101542.66;;;10.26;100.00
64352;BME280;50680;52.626;-8.668;2024-03-07T07:37:52;101542.44;;;10.32;100.00
64352;BME280;50680;52.626;-8.668;2024-03-07T07:40:23;101543.53;;;10.26;100.00
64352;BME280;50680;52.626;-8.668;2024-03-07T07:42:52;101544.88;;;10.37;100.00
64352;BME280;50680;52.626;-8.668;2024-03-07T07:45:20;101548.97;;;10.42;100.00
64352;BME280;50680;52.626;-8.668;2024-03-07T07:47:49;101541.38;;;10.36;100.00
64352;BME280;50680;52.626;-8.668;2024-03-07T07:50:18;101547.78;;;10.29;100.00
64352;BME280;50680;52.626;-8.668;2024-03-07T07:52:58;101557.16;;;10.34;100.00
64352;BME280;50680;52.626;-8.668;2024-03-07T07:55:27;101561.31;;;10.40;100.00
64352;BME280;50680;52.626;-8.668;2024-03-07T07:57:58;101545.28;;;10.46;100.00
64352;BME280;50680;52.626;-8.668;2024-03-07T08:00:28;101552.75;;;10.56;100.00
64352;BME280;50680;52.626;-8.668;2024-03-07T08:05:25;101543.94;;;10.57;100.00
64352;BME280;50680;52.626;-8.668;2024-03-07T08:07:56;101554.03;;;10.66;100.00
64352;BME280;50680;52.626;-8.668;2024-03-07T08:10:26;101546.50;;;10.77;100.00
64352;BME280;50680;52.626;-8.668;2024-03-07T08:13:00;101556.91;;;10.79;100.00
64352;BME280;50680;52.626;-8.668;2024-03-07T08:15:29;101543.00;;;10.96;100.00
64352;BME280;50680;52.626;-8.668;2024-03-07T08:17:57;101551.78;;;10.95;100.00
64352;BME280;50680;52.626;-8.668;2024-03-07T08:20:25;101539.31;;;11.00;100.00
64352;BME280;50680;52.626;-8.668;2024-03-07T08:22:54;101541.56;;;11.07;100.00
64352;BME280;50680;52.626;-8.668;2024-03-07T08:25:24;101558.47;;;11.19;100.00
64352;BME280;50680;52.626;-8.668;2024-03-07T08:27:53;101539.78;;;11.08;100.00
64352;BME280;50680;52.626;-8.668;2024-03-07T08:30:21;101536.47;;;11.04;100.00
64352;BME280;50680;52.626;-8.668;2024-03-07T08:32:57;101541.72;;;11.04;100.00
64352;BME280;50680;52.626;-8.668;2024-03-07T08:35:24;101549.63;;;10.85;100.00
64352;BME280;50680;52.626;-8.668;2024-03-07T08:37:53;101534.91;;;10.81;100.00
64352;BME280;50680;52.626;-8.668;2024-03-07T08:40:25;101533.38;;;10.77;100.00
64352;BME280;50680;52.626;-8.668;2024-03-07T08:42:55;101541.19;;;10.79;100.00
64352;BME280;50680;52.626;-8.668;2024-03-07T08:45:28;101543.16;;;10.73;100.00
64352;BME280;50680;52.626;-8.668;2024-03-07T08:47:57;101552.19;;;10.68;100.00
64352;BME280;50680;52.626;-8.668;2024-03-07T08:50:27;101562.50;;;10.71;100.00
64352;BME280;50680;52.626;-8.668;2024-03-07T08:52:55;101550.97;;;10.56;100.00
64352;BME280;50680;52.626;-8.668;2024-03-07T08:55:23;101543.72;;;10.61;100.00
64352;BME280;50680;52.626;-8.668;2024-03-07T08:57:52;101553.53;;;10.58;100.00
64352;BME280;50680;52.626;-8.668;2024-03-07T09:00:19;101553.38;;;10.61;100.00
64352;BME280;50680;52.626;-8.668;2024-03-07T09:02:56;101558.00;;;10.56;100.00
64352;BME280;50680;52.626;-8.668;2024-03-07T09:05:29;101557.34;;;10.50;100.00
64352;BME280;50680;52.626;-8.668;2024-03-07T09:07:58;101553.28;;;10.62;100.00
64352;BME280;50680;52.626;-8.668;2024-03-07T09:10:25;101554.44;;;10.57;100.00
64352;BME280;50680;52.626;-8.668;2024-03-07T09:12:53;101545.34;;;10.64;100.00
64352;BME280;50680;52.626;-8.668;2024-03-07T09:15:21;101545.09;;;10.70;100.00
64352;BME280;50680;52.626;-8.668;2024-03-07T09:17:51;101553.38;;;10.80;100.00
64352;BME280;50680;52.626;-8.668;2024-03-07T09:20:19;101534.50;;;10.90;100.00
64352;BME280;50680;52.626;-8.668;2024-03-07T09:22:47;101541.44;;;10.91;100.00
64352;BME280;50680;52.626;-8.668;2024-03-07T09:25:16;101540.41;;;11.13;100.00
64352;BME280;50680;52.626;-8.668;2024-03-07T09:27:44;101547.53;;;11.11;100.00
64352;BME280;50680;52.626;-8.668;2024-03-07T09:30:11;101553.41;;;11.16;100.00
64352;BME280;50680;52.626;-8.668;2024-03-07T09:32:42;101544.78;;;11.32;100.00
64352;BME280;50680;52.626;-8.668;2024-03-07T09:35:10;101543.69;;;11.36;100.00
64352;BME280;50680;52.626;-8.668;2024-03-07T09:37:42;101542.47;;;11.43;100.00
64352;BME280;50680;52.626;-8.668;2024-03-07T09:40:10;101544.19;;;11.61;100.00
64352;BME280;50680;52.626;-8.668;2024-03-07T09:42:43;101545.56;;;11.51;100.00
64352;BME280;50680;52.626;-8.668;2024-03-07T09:45:16;101548.78;;;12.09;100.00
64352;BME280;50680;52.626;-8.668;2024-03-07T09:47:45;101547.41;;;12.51;100.00
64352;BME280;50680;52.626;-8.668;2024-03-07T09:50:15;101552.03;;;12.63;100.00
64352;BME280;50680;52.626;-8.668;2024-03-07T09:52:43;101543.28;;;13.10;100.00
64352;BME280;50680;52.626;-8.668;2024-03-07T09:55:10;101541.81;;;13.21;100.00
64352;BME280;50680;52.626;-8.668;2024-03-07T09:57:38;101541.28;;;13.30;100.00
64352;BME280;50680;52.626;-8.668;2024-03-07T10:00:07;101541.97;;;13.33;100.00
64352;BME280;50680;52.626;-8.668;2024-03-07T10:02:36;101537.03;;;13.43;100.00
64352;BME280;50680;52.626;-8.668;2024-03-07T10:05:10;101545.34;;;13.51;100.00
64352;BME280;50680;52.626;-8.668;2024-03-07T10:07:42;101537.38;;;13.37;100.00
64352;BME280;50680;52.626;-8.668;2024-03-07T10:10:09;101538.63;;;13.46;100.00
64352;BME280;50680;52.626;-8.668;2024-03-07T10:12:38;101548.34;;;13.45;100.00
64352;BME280;50680;52.626;-8.668;2024-03-07T10:15:06;101529.72;;;13.48;100.00
64352;BME280;50680;52.626;-8.668;2024-03-07T10:17:36;101539.59;;;13.45;100.00
64352;BME280;50680;52.626;-8.668;2024-03-07T10:20:05;101545.56;;;13.63;100.00
64352;BME280;50680;52.626;-8.668;2024-03-07T10:22:36;101544.63;;;13.64;100.00
64352;BME280;50680;52.626;-8.668;2024-03-07T10:25:04;101543.88;;;13.62;100.00
64352;BME280;50680;52.626;-8.668;2024-03-07T10:27:31;101537.31;;;13.83;100.00
64352;BME280;50680;52.626;-8.668;2024-03-07T10:29:58;101544.47;;;13.81;100.00
64352;BME280;50680;52.626;-8.668;2024-03-07T10:32:26;101536.56;;;13.81;100.00
64352;BME280;50680;52.626;-8.668;2024-03-07T10:34:53;101529.81;;;13.91;100.00
64352;BME280;50680;52.626;-8.668;2024-03-07T10:37:21;101528.56;;;13.83;100.00
64352;BME280;50680;52.626;-8.668;2024-03-07T10:39:48;101540.16;;;13.50;100.00
64352;BME280;50680;52.626;-8.668;2024-03-07T10:42:19;101533.38;;;13.30;100.00
64352;BME280;50680;52.626;-8.668;2024-03-07T10:44:47;101534.00;;;13.19;100.00
64352;BME280;50680;52.626;-8.668;2024-03-07T10:47:19;101527.91;;;13.19;100.00
64352;BME280;50680;52.626;-8.668;2024-03-07T10:50:22;101535.88;;;13.33;100.00
64352;BME280;50680;52.626;-8.668;2024-03-07T10:52:56;101531.44;;;13.64;100.00
64352;BME280;50680;52.626;-8.668;2024-03-07T10:55:38;101527.78;;;13.66;100.00
64352;BME280;50680;52.626;-8.668;2024-03-07T10:58:14;101527.34;;;13.74;100.00
64352;BME280;50680;52.626;-8.668;2024-03-07T11:00:45;101545.81;;;14.03;100.00
64352;BME280;50680;52.626;-8.668;2024-03-07T11:03:14;101545.97;;;14.00;100.00
64352;BME280;50680;52.626;-8.668;2024-03-07T11:05:41;101518.22;;;14.08;100.00
64352;BME280;50680;52.626;-8.668;2024-03-07T11:08:10;101508.13;;;14.15;100.00
64352;BME280;50680;52.626;-8.668;2024-03-07T11:10:40;101529.69;;;14.22;100.00
64352;BME280;50680;52.626;-8.668;2024-03-07T11:13:10;101519.06;;;14.09;100.00
64352;BME280;50680;52.626;-8.668;2024-03-07T11:15:42;101506.25;;;14.32;100.00
64352;BME280;50680;52.626;-8.668;2024-03-07T11:18:11;101516.13;;;13.99;100.00
64352;BME280;50680;52.626;-8.668;2024-03-07T11:20:40;101508.88;;;14.03;100.00
64352;BME280;50680;52.626;-8.668;2024-03-07T11:26:08;101500.38;;;14.70;100.00
64352;BME280;50680;52.626;-8.668;2024-03-07T11:28:37;101514.69;;;14.65;100.00
64352;BME280;50680;52.626;-8.668;2024-03-07T11:34:15;101503.16;;;14.81;100.00
64352;BME280;50680;52.626;-8.668;2024-03-07T11:36:46;101515.16;;;14.99;100.00
64352;BME280;50680;52.626;-8.668;2024-03-07T11:44:49;101511.31;;;14.49;100.00
64352;BME280;50680;52.626;-8.668;2024-03-07T11:47:18;101522.09;;;14.17;100.00
64352;BME280;50680;52.626;-8.668;2024-03-07T11:49:45;101504.38;;;14.19;100.00
64352;BME280;50680;52.626;-8.668;2024-03-07T11:52:16;101516.44;;;14.09;100.00
64352;BME280;50680;52.626;-8.668;2024-03-07T11:54:43;101520.59;;;14.27;100.00
64352;BME280;50680;52.626;-8.668;2024-03-07T11:59:47;101505.47;;;14.44;100.00
64352;BME280;50680;52.626;-8.668;2024-03-07T12:02:19;101500.38;;;14.70;100.00
64352;BME280;50680;52.626;-8.668;2024-03-07T12:04:50;101512.41;;;14.88;100.00
64352;BME280;50680;52.626;-8.668;2024-03-07T12:07:17;101498.59;;;15.10;100.00
64352;BME280;50680;52.626;-8.668;2024-03-07T12:09:44;101502.16;;;14.96;100.00
64352;BME280;50680;52.626;-8.668;2024-03-07T12:12:17;101497.28;;;15.30;100.00
64352;BME280;50680;52.626;-8.668;2024-03-07T12:14:45;101507.66;;;15.33;100.00
64352;BME280;50680;52.626;-8.668;2024-03-07T12:17:12;101495.31;;;15.07;100.00
64352;BME280;50680;52.626;-8.668;2024-03-07T12:19:41;101504.41;;;15.02;100.00
64352;BME280;50680;52.626;-8.668;2024-03-07T12:22:09;101515.09;;;14.45;100.00
64352;BME280;50680;52.626;-8.668;2024-03-07T12:24:39;101500.09;;;14.45;100.00
64352;BME280;50680;52.626;-8.668;2024-03-07T12:27:11;101483.03;;;14.51;100.00
64352;BME280;50680;52.626;-8.668;2024-03-07T12:29:39;101501.97;;;14.58;100.00
64352;BME280;50680;52.626;-8.668;2024-03-07T12:32:12;101495.94;;;14.56;100.00
64352;BME280;50680;52.626;-8.668;2024-03-07T12:34:40;101491.81;;;14.93;100.00
64352;BME280;50680;52.626;-8.668;2024-03-07T12:37:13;101498.56;;;15.25;100.00
64352;BME280;50680;52.626;-8.668;2024-03-07T12:39:44;101488.88;;;15.64;100.00
64352;BME280;50680;52.626;-8.668;2024-03-07T12:42:16;101475.03;;;15.47;100.00
64352;BME280;50680;52.626;-8.668;2024-03-07T12:44:50;101493.50;;;15.34;100.00
64352;BME280;50680;52.626;-8.668;2024-03-07T12:47:17;101496.38;;;15.44;100.00
64352;BME280;50680;52.626;-8.668;2024-03-07T12:49:44;101492.78;;;15.05;100.00
64352;BME280;50680;52.626;-8.668;2024-03-07T12:52:12;101472.28;;;14.54;100.00
64352;BME280;50680;52.626;-8.668;2024-03-07T12:54:41;101481.91;;;14.41;100.00